Time;durP1;ratioP1;P1;durP2;ratioP2;P2;SDS_P1;SDS_P2;PMS_P1;PMS_P2;Temp;Humidity;BMP_temperature;BMP_pressure;BME280_temperature;BME280_humidity;BME280_pressure;Samples;Min_cycle;Max_cycle;Signal;HPM_P1;HPM_P2
2022/08/20 00:02:23;;;;;;;8.32;6.30;;;;;;;28.70;40.75;99175.53;5132470;27;20051;-37
2022/08/20 00:04:49;;;;;;;9.80;6.82;;;;;;;28.39;41.33;99174.84;5133378;27;20081;-36
2022/08/20 00:07:14;;;;;;;7.90;6.68;;;;;;;28.43;41.48;99173.03;5133139;27;20023;-36
2022/08/20 00:09:40;;;;;;;12.05;6.80;;;;;;;28.40;41.70;99178.38;5133072;27;20140;-36
2022/08/20 00:12:06;;;;;;;9.77;6.65;;;;;;;28.50;41.65;99180.66;5132516;27;20156;-36
2022/08/20 00:14:33;;;;;;;11.23;6.80;;;;;;;28.47;41.85;99176.69;5132883;27;20030;-36
2022/08/20 00:16:59;;;;;;;7.57;6.78;;;;;;;28.72;41.53;99176.00;5133352;27;20359;-37
2022/08/20 00:19:24;;;;;;;12.35;6.70;;;;;;;27.98;43.37;99172.94;5132711;27;20136;-36
2022/08/20 00:21:49;;;;;;;12.77;7.13;;;;;;;27.82;43.84;99172.72;5132556;27;20508;-36
2022/08/20 00:24:15;;;;;;;10.60;7.10;;;;;;;27.80;43.79;99172.25;5133044;27;20098;-36
2022/08/20 00:26:40;;;;;;;11.20;6.50;;;;;;;27.93;43.88;99171.22;5132865;27;20509;-36
2022/08/20 00:29:06;;;;;;;13.00;6.68;;;;;;;27.79;43.90;99165.94;5132749;27;20011;-37
2022/08/20 00:31:31;;;;;;;9.10;7.03;;;;;;;28.36;42.89;99161.81;5133137;27;20043;-37
2022/08/20 00:33:57;;;;;;;11.15;7.55;;;;;;;27.52;44.89;99171.94;5132431;27;20031;-37
2022/08/20 00:36:23;;;;;;;8.57;6.57;;;;;;;27.15;45.22;99128.72;5131696;27;20026;-36
2022/08/20 00:38:48;;;;;;;11.10;7.40;;;;;;;27.61;45.07;99168.00;5133099;27;20015;-36
2022/08/20 00:41:21;;;;;;;10.93;7.30;;;;;;;27.52;45.55;99158.28;5133030;27;20380;-36
2022/08/20 00:44:03;;;;;;;12.10;7.05;;;;;;;27.54;45.70;99162.25;5132353;27;20134;-36
2022/08/20 00:46:29;;;;;;;10.27;7.20;;;;;;;27.81;45.27;99160.16;5132769;27;20016;-36
2022/08/20 00:48:57;;;;;;;9.48;7.45;;;;;;;27.21;47.03;99162.91;5132586;27;20454;-36
2022/08/20 00:51:45;;;;;;;13.88;7.70;;;;;;;26.99;48.19;99168.59;5132356;27;20023;-36
2022/08/20 00:54:10;;;;;;;12.35;7.43;;;;;;;26.84;47.97;99164.47;5131971;27;20023;-36
2022/08/20 00:56:37;;;;;;;10.52;6.82;;;;;;;26.95;46.77;99160.28;5132690;27;20023;-37
2022/08/20 00:59:10;;;;;;;9.75;7.32;;;;;;;26.96;46.03;99159.16;5132710;27;20029;-36
2022/08/20 01:01:37;;;;;;;9.30;7.05;;;;;;;27.53;44.76;99166.16;5132433;27;20027;-36
2022/08/20 01:04:04;;;;;;;11.23;7.15;;;;;;;26.88;45.98;99165.44;5132227;27;20022;-36
2022/08/20 01:06:30;;;;;;;12.55;6.65;;;;;;;26.63;46.40;99159.72;5131678;27;20030;-36
2022/08/20 01:08:55;;;;;;;11.32;7.22;;;;;;;26.71;46.19;99155.34;5132234;27;20023;-37
2022/08/20 01:11:27;;;;;;;12.80;7.63;;;;;;;26.65;46.41;99162.13;5132007;27;20107;-37
2022/08/20 01:13:54;;;;;;;10.50;7.32;;;;;;;27.00;46.22;99162.03;5130728;27;20102;-37
2022/08/20 01:16:30;;;;;;;8.70;7.63;;;;;;;27.06;46.27;99163.44;5131826;27;20015;-37
2022/08/20 01:18:57;;;;;;;11.85;7.65;;;;;;;26.77;46.98;99153.25;5132099;27;20125;-37
2022/08/20 01:21:27;;;;;;;11.15;7.95;;;;;;;26.79;47.49;99145.53;5131747;27;20019;-37
2022/08/20 01:23:59;;;;;;;10.88;8.07;;;;;;;26.67;48.20;99155.22;5131839;27;20101;-36
2022/08/20 01:26:30;;;;;;;10.27;8.32;;;;;;;26.56;48.78;99153.94;5131596;27;20102;-37
2022/08/20 01:29:00;;;;;;;9.25;8.02;;;;;;;26.55;49.24;99154.25;5132087;27;20019;-36
2022/08/20 01:31:30;;;;;;;10.73;8.45;;;;;;;26.99;48.21;99150.28;5131812;27;20023;-36
2022/08/20 01:33:57;;;;;;;11.95;8.63;;;;;;;26.76;49.23;99147.00;5131557;27;20725;-36
2022/08/20 01:36:33;;;;;;;10.80;8.80;;;;;;;26.41;50.35;99149.78;5131408;27;20019;-36
2022/08/20 01:38:59;;;;;;;13.95;8.80;;;;;;;26.46;49.91;99143.34;5131758;27;20047;-36
2022/08/20 01:41:52;;;;;;;11.27;7.90;;;;;;;26.39;50.17;99152.03;5131458;27;20117;-36
2022/08/20 01:44:19;;;;;;;11.25;8.23;;;;;;;26.67;49.30;99144.31;5131552;27;20110;-36
2022/08/20 01:46:47;;;;;;;10.98;7.97;;;;;;;27.30;47.79;99138.28;5131455;27;20054;-37
2022/08/20 01:49:26;;;;;;;10.13;7.88;;;;;;;26.76;49.16;99147.00;5131616;27;20076;-37
2022/08/20 01:51:53;;;;;;;12.05;7.97;;;;;;;26.57;49.90;99143.81;5131528;27;20169;-36
2022/08/20 01:54:20;;;;;;;10.88;7.43;;;;;;;26.49;49.95;99137.25;5131262;27;20094;-36
2022/08/20 01:57:14;;;;;;;12.15;8.10;;;;;;;26.59;49.70;99136.94;5131149;27;20134;-36
2022/08/20 01:59:40;;;;;;;11.60;7.55;;;;;;;26.73;49.09;99142.19;5131359;27;20043;-36
2022/08/20 02:02:07;;;;;;;10.13;7.95;;;;;;;27.02;47.97;99144.19;5131055;27;20100;-37
2022/08/20 02:04:33;;;;;;;8.43;7.40;;;;;;;26.91;48.33;99151.13;5131268;27;20051;-37
2022/08/20 02:07:00;;;;;;;9.95;7.30;;;;;;;26.70;48.67;99160.03;5131351;27;20027;-36
2022/08/20 02:09:29;;;;;;;10.07;7.80;;;;;;;26.79;48.58;99162.75;5131110;27;20051;-36
2022/08/20 02:11:56;;;;;;;9.68;7.90;;;;;;;27.02;47.86;99160.56;5131041;27;20521;-36
2022/08/20 02:14:22;;;;;;;11.00;7.20;;;;;;;27.09;47.64;99165.50;5131797;27;20133;-36
2022/08/20 02:16:49;;;;;;;10.68;7.35;;;;;;;27.54;46.09;99166.94;5132167;27;20031;-37
2022/08/20 02:19:21;;;;;;;11.45;7.35;;;;;;;27.11;46.98;99164.06;5131360;27;20038;-37
2022/08/20 02:21:53;;;;;;;8.95;7.20;;;;;;;26.70;47.89;99160.03;5131602;27;20102;-37
2022/08/20 02:24:20;;;;;;;10.57;7.20;;;;;;;26.66;48.30;99163.75;5131182;27;20031;-37
2022/08/20 02:26:46;;;;;;;8.43;7.00;;;;;;;26.81;47.00;99148.78;5131555;27;20467;-37
2022/08/20 02:29:13;;;;;;;8.27;7.40;;;;;;;26.81;47.74;99155.03;5131687;27;20031;-37
2022/08/20 02:31:41;;;;;;;7.90;7.13;;;;;;;27.29;45.98;99161.28;5131349;27;20131;-37
2022/08/20 02:34:08;;;;;;;10.18;6.97;;;;;;;26.64;46.67;99147.69;5131458;27;20408;-37
2022/08/20 02:36:36;;;;;;;10.20;7.40;;;;;;;26.45;46.65;99163.59;5131411;27;20493;-37
2022/08/20 02:39:06;;;;;;;9.30;6.70;;;;;;;26.25;46.81;99154.94;5131608;27;20589;-37
2022/08/20 02:41:33;;;;;;;8.25;7.45;;;;;;;26.21;46.80;99159.41;5131572;27;20058;-36
2022/08/20 02:43:59;;;;;;;9.40;7.10;;;;;;;26.17;46.40;99153.00;5131491;27;20023;-37
2022/08/20 02:46:27;;;;;;;8.68;7.43;;;;;;;26.50;45.92;99161.50;5131338;27;20052;-37
2022/08/20 02:48:55;;;;;;;9.90;7.43;;;;;;;25.97;47.10;99148.19;5131660;27;20032;-37
2022/08/20 02:51:21;;;;;;;8.02;7.20;;;;;;;25.55;47.80;99154.03;5131174;27;20059;-37
2022/08/20 02:53:47;;;;;;;13.25;7.88;;;;;;;25.65;47.66;99151.03;5131482;27;20031;-37
2022/08/20 02:56:13;;;;;;;8.75;7.57;;;;;;;25.99;47.03;99151.41;5131402;27;20069;-37
2022/08/20 02:58:39;;;;;;;9.63;7.28;;;;;;;26.09;47.10;99157.34;5130438;27;20034;-36
2022/08/20 03:01:08;;;;;;;9.90;7.70;;;;;;;26.80;45.07;99150.69;5117830;27;20407;-37
2022/08/20 03:03:33;;;;;;;9.25;7.70;;;;;;;25.88;47.14;99146.25;5120708;27;20031;-36
2022/08/20 03:06:00;;;;;;;10.07;8.13;;;;;;;25.66;47.62;99152.63;5114513;28;20084;-37
2022/08/20 03:08:28;;;;;;;11.50;8.00;;;;;;;25.58;48.01;99155.34;5114586;28;20606;-37
2022/08/20 03:10:54;;;;;;;9.07;7.70;;;;;;;26.00;46.98;99155.75;5114581;28;20024;-37
2022/08/20 03:13:21;;;;;;;9.98;7.78;;;;;;;26.49;45.84;99150.91;5114137;28;20031;-37
2022/08/20 03:15:53;;;;;;;9.57;7.75;;;;;;;26.37;45.74;99151.56;5114536;28;20023;-37
2022/08/20 03:18:20;;;;;;;9.43;7.53;;;;;;;25.68;47.41;99146.88;5113049;28;20031;-36
2022/08/20 03:20:46;;;;;;;10.52;7.50;;;;;;;25.56;47.77;99151.00;5113974;27;20027;-37
2022/08/20 03:23:13;;;;;;;9.75;7.90;;;;;;;25.61;47.71;99144.63;5132997;27;20023;-36
2022/08/20 03:25:39;;;;;;;11.65;8.40;;;;;;;25.36;48.14;99141.53;5133181;27;20127;-36
2022/08/20 03:28:04;;;;;;;12.85;8.70;;;;;;;25.66;47.71;99143.66;5133633;27;20481;-37
2022/08/20 03:30:30;;;;;;;13.30;8.85;;;;;;;25.85;47.40;99140.63;5134243;27;20046;-37
2022/08/20 03:32:57;;;;;;;10.77;8.30;;;;;;;25.48;48.39;99142.84;5133849;27;20051;-36
2022/08/20 03:35:25;;;;;;;10.45;8.30;;;;;;;25.56;48.46;99151.00;5134096;27;20034;-36
2022/08/20 03:37:51;;;;;;;10.88;8.98;;;;;;;25.53;48.79;99153.56;5134551;27;20453;-37
2022/08/20 03:40:27;;;;;;;11.80;8.07;;;;;;;25.85;48.09;99162.44;5134454;27;20031;-36
2022/08/20 03:42:52;;;;;;;13.60;9.23;;;;;;;26.39;46.61;99160.22;5134271;27;20031;-37
2022/08/20 03:45:20;;;;;;;10.77;8.90;;;;;;;26.20;47.13;99165.19;5134397;27;20027;-37
2022/08/20 03:47:47;;;;;;;16.23;8.80;;;;;;;26.00;47.74;99159.28;5134822;27;20161;-36
2022/08/20 03:50:13;;;;;;;10.93;8.50;;;;;;;25.94;48.23;99163.28;5134571;27;20067;-35
2022/08/20 03:52:39;;;;;;;12.13;9.07;;;;;;;25.86;48.30;99155.88;5133964;27;20023;-38
2022/08/20 03:55:07;;;;;;;12.93;9.35;;;;;;;25.86;48.45;99164.84;5134229;27;20072;-37
2022/08/20 03:57:33;;;;;;;13.35;9.55;;;;;;;26.56;46.92;99162.13;5134171;27;20130;-37
2022/08/20 03:59:58;;;;;;;10.88;8.60;;;;;;;25.99;48.47;99165.03;5134453;27;20359;-35
2022/08/20 04:02:24;;;;;;;11.85;8.52;;;;;;;25.87;48.97;99155.53;5134188;27;20023;-35
2022/08/20 04:04:50;;;;;;;15.70;9.18;;;;;;;25.80;49.16;99157.13;5133901;27;20031;-36
2022/08/20 04:07:24;;;;;;;14.80;8.88;;;;;;;26.02;48.71;99154.28;5133612;27;20513;-36
2022/08/20 04:09:54;;;;;;;20.08;9.13;;;;;;;26.19;48.46;99167.13;5134018;27;20061;-36
2022/08/20 04:12:21;;;;;;;17.10;9.13;;;;;;;27.02;46.24;99155.13;5133673;27;20020;-37
2022/08/20 04:14:47;;;;;;;15.27;8.90;;;;;;;26.42;47.57;99150.59;5133781;27;20057;-37
2022/08/20 04:17:13;;;;;;;13.13;8.88;;;;;;;26.33;47.93;99150.59;5133228;27;20023;-37
2022/08/20 04:19:40;;;;;;;17.45;9.20;;;;;;;26.55;48.18;99146.06;5133738;27;20037;-36
2022/08/20 04:22:06;;;;;;;15.13;9.15;;;;;;;26.81;47.13;99159.69;5133695;27;20109;-43
2022/08/20 04:24:33;;;;;;;14.73;8.95;;;;;;;27.03;47.02;99162.16;5134045;27;20056;-42
2022/08/20 04:27:01;;;;;;;11.60;9.10;;;;;;;28.01;44.54;99170.34;5131980;27;20106;-42
2022/08/20 04:29:27;;;;;;;13.05;9.07;;;;;;;27.69;45.27;99169.88;5133978;27;20027;-42
2022/08/20 04:31:53;;;;;;;15.18;9.18;;;;;;;27.87;44.98;99172.50;5145387;27;20133;-42
2022/08/20 04:34:18;;;;;;;14.52;9.00;;;;;;;27.98;44.25;99176.47;5136258;27;20513;-43
2022/08/20 04:36:47;;;;;;;13.35;8.85;;;;;;;28.10;44.11;99169.47;5133787;27;20489;-43
2022/08/20 04:39:16;;;;;;;14.43;8.63;;;;;;;28.35;43.70;99171.19;5133520;27;20102;-43
2022/08/20 04:41:42;;;;;;;12.68;8.60;;;;;;;29.21;41.60;99179.63;5148232;27;20382;-43
2022/08/20 04:44:09;;;;;;;13.25;8.60;;;;;;;28.84;42.72;99184.22;5133913;27;20062;-43
2022/08/20 04:46:36;;;;;;;10.45;8.15;;;;;;;28.71;43.18;99177.94;5133383;27;20035;-44
2022/08/20 04:49:03;;;;;;;10.30;8.52;;;;;;;28.84;43.17;99179.56;5133109;27;20092;-43
2022/08/20 04:51:28;;;;;;;12.80;7.97;;;;;;;29.07;42.86;99178.31;5133320;27;20034;-43
2022/08/20 04:53:56;;;;;;;13.40;8.60;;;;;;;29.24;42.47;99172.66;5133119;27;20031;-41
2022/08/20 04:56:26;;;;;;;14.43;8.20;;;;;;;29.94;40.71;99188.94;5133188;27;20410;-42
2022/08/20 04:58:54;;;;;;;11.40;8.32;;;;;;;29.41;41.60;99183.38;5132944;27;20114;-42
2022/08/20 05:01:22;;;;;;;11.73;8.37;;;;;;;29.34;41.85;99187.84;5133301;27;20037;-43
2022/08/20 05:03:48;;;;;;;11.75;8.18;;;;;;;29.42;41.84;99190.47;5132990;27;20064;-43
2022/08/20 05:06:16;;;;;;;10.55;7.38;;;;;;;29.84;40.91;99183.94;5132906;27;20033;-42
2022/08/20 05:08:42;;;;;;;11.15;7.95;;;;;;;30.39;39.52;99187.91;5133467;27;20031;-43
2022/08/20 05:11:08;;;;;;;15.02;8.50;;;;;;;30.35;39.69;99184.28;5132799;27;20027;-43
2022/08/20 05:13:34;;;;;;;14.10;8.35;;;;;;;29.97;40.10;99190.22;5132807;27;20038;-43
2022/08/20 05:16:01;;;;;;;17.50;8.48;;;;;;;29.85;40.44;99185.53;5132678;27;20023;-43
2022/08/20 05:18:31;;;;;;;12.60;8.52;;;;;;;30.17;39.81;99185.69;5133429;27;20027;-42
2022/08/20 05:21:01;;;;;;;12.85;8.45;;;;;;;30.48;38.49;99179.53;5132146;27;20061;-43
2022/08/20 05:23:27;;;;;;;13.05;8.52;;;;;;;31.33;37.31;99166.41;5133230;27;20053;-43
2022/08/20 05:25:52;;;;;;;14.55;9.00;;;;;;;30.75;38.37;99190.84;5132890;27;20050;-44
2022/08/20 05:28:24;;;;;;;12.75;8.13;;;;;;;30.68;38.40;99185.16;5133223;27;20019;-43
2022/08/20 05:30:51;;;;;;;11.95;8.35;;;;;;;31.07;38.23;99196.38;5132429;27;20023;-43
2022/08/20 05:33:19;;;;;;;14.18;8.40;;;;;;;31.36;37.93;99176.69;5132306;27;20043;-43
2022/08/20 05:35:46;;;;;;;14.93;8.40;;;;;;;32.09;36.89;99190.91;5132722;27;20023;-44
2022/08/20 05:38:14;;;;;;;15.00;8.25;;;;;;;31.94;36.53;99181.53;5132708;27;20027;-43
2022/08/20 05:40:41;;;;;;;14.53;8.50;;;;;;;32.06;36.54;99177.09;5147853;27;20018;-44
2022/08/20 05:43:07;;;;;;;16.83;8.57;;;;;;;32.12;36.48;99179.19;5152885;27;20049;-43
2022/08/20 05:45:38;;;;;;;19.38;8.63;;;;;;;32.46;35.53;99179.47;5153046;27;20482;-43
2022/08/20 05:48:07;;;;;;;20.75;9.25;;;;;;;33.00;34.75;99180.44;5153422;27;20030;-44
2022/08/20 05:50:34;;;;;;;13.50;8.30;;;;;;;33.64;33.96;99177.97;5153438;27;20026;-44
2022/08/20 05:53:00;;;;;;;16.30;8.40;;;;;;;33.30;34.63;99175.06;5152804;27;20027;-43
2022/08/20 05:55:27;;;;;;;15.10;8.52;;;;;;;33.23;34.60;99176.91;5141583;27;20027;-43
2022/08/20 05:57:59;;;;;;;14.07;8.55;;;;;;;33.33;34.18;99179.03;5131966;27;20027;-43
2022/08/20 06:00:25;;;;;;;13.38;8.30;;;;;;;33.61;33.26;99175.13;5130940;27;20076;-44
2022/08/20 06:05:35;;;;;;;12.43;8.10;;;;;;;34.13;32.80;99181.72;5130933;27;20132;-43
2022/08/20 06:08:06;;;;;;;13.07;8.75;;;;;;;33.99;32.91;99179.59;5130638;27;20400;-44
2022/08/20 06:10:32;;;;;;;11.40;9.30;;;;;;;34.39;32.37;99185.63;5130956;27;20027;-43
2022/08/20 06:12:57;;;;;;;15.40;8.93;;;;;;;35.21;31.29;99169.84;5130932;27;20041;-46
2022/08/20 06:15:23;;;;;;;14.18;8.18;;;;;;;34.89;32.31;99183.38;5131067;27;20023;-37
2022/08/20 06:17:48;;;;;;;13.40;7.90;;;;;;;34.11;32.80;99173.03;5130841;27;20483;-37
2022/08/20 06:20:14;;;;;;;12.00;7.53;;;;;;;34.40;32.32;99179.69;5130798;27;20069;-40
2022/08/20 06:22:39;;;;;;;10.57;7.20;;;;;;;34.56;32.09;99182.25;5130792;27;20467;-37
2022/08/20 06:25:06;;;;;;;11.48;7.78;;;;;;;34.92;31.67;99174.34;5130719;27;20144;-37
2022/08/20 06:27:32;;;;;;;13.30;7.80;;;;;;;34.25;32.32;99183.47;5130890;27;20023;-38
2022/08/20 06:29:57;;;;;;;13.55;10.02;;;;;;;34.34;32.54;99181.22;5145715;27;20027;-37
2022/08/20 06:32:25;;;;;;;11.45;8.20;;;;;;;34.78;32.41;99171.44;5132278;27;20062;-38
2022/08/20 06:34:50;;;;;;;14.27;8.48;;;;;;;34.87;31.93;99184.94;5133605;27;20027;-44
2022/08/20 06:37:19;;;;;;;11.32;7.22;;;;;;;35.48;30.52;99177.16;5134670;27;20132;-45
2022/08/20 06:39:44;;;;;;;;;;;;;;;34.87;31.66;99173.91;5135111;27;20019;-43
2022/08/20 06:42:10;;;;;;;10.90;7.65;;;;;;;34.28;32.34;99172.47;5134682;27;20435;-45
2022/08/20 06:44:36;;;;;;;8.95;7.18;;;;;;;34.33;32.64;99173.31;5136622;27;20050;-41
2022/08/20 06:47:03;;;;;;;13.40;7.28;;;;;;;34.47;32.86;99174.25;5133710;27;20435;-43
2022/08/20 06:49:29;;;;;;;9.98;7.18;;;;;;;35.72;30.71;99171.00;5134166;27;20031;-43
2022/08/20 06:51:55;;;;;;;9.23;7.18;;;;;;;34.69;32.79;99173.72;5133997;27;20058;-43
2022/08/20 06:54:21;;;;;;;9.70;7.43;;;;;;;35.14;32.16;99168.97;5134124;27;20067;-44
2022/08/20 06:56:47;;;;;;;13.85;7.40;;;;;;;35.07;32.48;99166.16;5134128;27;20080;-44
2022/08/20 06:59:12;;;;;;;8.75;6.93;;;;;;;35.37;32.14;99174.31;5139535;27;20018;-44
2022/08/20 07:01:38;;;;;;;9.27;7.20;;;;;;;35.48;31.56;99169.63;5154889;27;20023;-42
2022/08/20 07:16:18;;;;;;;12.48;7.20;;;;;;;35.37;32.06;99161.25;5066569;27;20378;-36
2022/08/20 07:18:43;;;;;;;10.00;7.30;;;;;;;35.00;32.58;99150.31;5065929;28;20040;-36
2022/08/20 07:21:10;;;;;;;11.63;7.10;;;;;;;35.46;32.12;99157.38;5066108;28;20028;-36
2022/08/20 07:23:36;;;;;;;10.35;7.00;;;;;;;36.56;30.11;99150.75;5066598;28;20024;-36
2022/08/20 07:26:02;;;;;;;10.15;6.93;;;;;;;36.42;30.38;99154.28;5065942;28;20032;-36
2022/08/20 07:28:28;;;;;;;12.38;7.20;;;;;;;36.16;30.98;99152.59;5065289;28;20046;-37
2022/08/20 07:33:40;;;;;;;9.32;7.43;;;;;;;35.95;30.86;99150.56;5066681;28;20439;-37
2022/08/20 07:36:06;;;;;;;10.73;7.35;;;;;;;36.75;29.51;99149.63;5066667;28;20042;-37
2022/08/20 07:38:33;;;;;;;11.85;8.00;;;;;;;36.00;30.75;99155.69;5065160;28;20033;-37
2022/08/20 07:41:01;;;;;;;11.43;7.05;;;;;;;36.31;30.90;99143.19;5065560;28;20090;-36
2022/08/20 07:43:28;;;;;;;;;;;;;;;36.41;29.79;99138.84;5079016;28;20028;-37
2022/08/20 07:45:57;;;;;;;8.43;7.30;;;;;;;37.32;29.06;99146.06;5061654;28;19979;-37
2022/08/20 07:48:29;;;;;;;9.70;7.78;;;;;;;37.35;28.78;99143.25;5046769;28;20426;-37
2022/08/20 07:50:56;;;;;;;12.93;7.88;;;;;;;37.04;29.30;99142.09;5066435;28;20029;-37
2022/08/20 07:53:22;;;;;;;8.38;7.53;;;;;;;37.30;29.25;99135.34;5065845;28;20055;-37
2022/08/20 07:55:48;;;;;;;10.73;7.25;;;;;;;37.88;28.44;99126.88;5065894;28;20218;-37
2022/08/20 07:58:17;;;;;;;9.55;7.28;;;;;;;38.26;27.70;99136.22;5064363;28;20032;-37
2022/08/20 08:00:42;;;;;;;10.70;7.40;;;;;;;38.26;27.92;99127.88;5065516;28;20021;-37
2022/08/20 08:03:09;;;;;;;8.68;7.20;;;;;;;38.59;27.38;99128.50;5053450;28;20116;-37
2022/08/20 08:05:39;;;;;;;10.65;7.20;;;;;;;38.63;27.56;99120.94;5045952;28;20059;-37
2022/08/20 08:08:08;;;;;;;9.93;6.82;;;;;;;39.60;26.53;99125.59;5065885;28;20064;-37
2022/08/20 08:10:35;;;;;;;11.05;7.10;;;;;;;38.83;27.01;99123.16;5065638;28;20460;-37
2022/08/20 08:13:05;;;;;;;14.95;9.10;;;;;;;38.66;27.31;99116.53;5065634;28;20033;-37
2022/08/20 08:15:32;;;;;;;8.60;7.25;;;;;;;37.89;27.95;99112.59;5061642;28;20048;-35
2022/08/20 08:18:05;;;;;;;12.52;7.07;;;;;;;38.47;27.48;99112.28;5052631;28;20048;-37
2022/08/20 08:20:30;;;;;;;11.68;7.38;;;;;;;38.24;27.25;99104.50;5051988;28;20029;-37
2022/08/20 08:22:56;;;;;;;7.85;6.60;;;;;;;38.32;27.76;99101.25;5051686;28;20025;-37
2022/08/20 08:25:21;;;;;;;7.75;6.72;;;;;;;38.79;27.18;99102.94;5051659;28;20035;-38
2022/08/20 08:27:47;;;;;;;7.60;6.80;;;;;;;39.04;26.44;99103.50;5051937;28;20033;-35
2022/08/20 08:30:14;;;;;;;6.90;6.13;;;;;;;38.26;27.24;99089.00;5052266;28;20037;-37
2022/08/20 08:33:26;;;;;;;8.43;6.72;;;;;;;37.41;29.20;99076.28;5051924;28;20025;-35
2022/08/20 08:35:25;;;;;;;8.75;6.55;;;;;;;37.01;29.58;99081.09;5052342;28;20029;-37
2022/08/20 08:37:52;;;;;;;10.35;7.18;;;;;;;37.34;28.62;99079.88;5051967;28;20029;-36
2022/08/20 08:40:22;;;;;;;7.85;6.90;;;;;;;36.96;29.24;99069.22;5052073;28;20040;-37
2022/08/20 08:42:54;;;;;;;10.35;6.90;;;;;;;36.73;30.02;99061.31;5051988;28;20041;-37
2022/08/20 08:45:20;;;;;;;8.88;6.75;;;;;;;36.98;28.84;99061.28;5051090;28;20348;-37
2022/08/20 08:47:47;;;;;;;9.20;6.90;;;;;;;36.90;29.24;99054.19;5051796;28;20053;-37
2022/08/20 08:50:24;;;;;;;12.00;6.82;;;;;;;36.85;29.54;99046.25;5051643;28;20028;-38
2022/08/20 08:52:59;;;;;;;8.85;7.10;;;;;;;36.66;29.85;99057.78;5051543;28;20477;-37
2022/08/20 08:55:27;;;;;;;10.48;6.65;;;;;;;36.19;29.67;99052.16;5050974;28;20035;-39
2022/08/20 08:57:55;;;;;;;11.02;6.38;;;;;;;37.14;28.88;99057.34;5052169;28;20021;-37
2022/08/20 09:00:22;;;;;;;9.73;6.78;;;;;;;36.77;29.30;99051.03;5051639;28;20033;-37
2022/08/20 09:03:01;;;;;;;9.70;6.47;;;;;;;36.94;29.62;99046.66;5051874;28;20040;-37
2022/08/20 09:05:35;;;;;;;10.43;6.50;;;;;;;37.41;28.91;99046.53;5031304;28;20104;-37
2022/08/20 09:08:02;;;;;;;12.95;6.50;;;;;;;37.64;27.98;99034.19;5030599;28;20057;-36
2022/08/20 09:10:28;;;;;;;10.60;7.18;;;;;;;37.88;28.08;99040.81;5032028;28;20056;-37
2022/08/20 09:12:54;;;;;;;9.50;6.38;;;;;;;37.54;28.75;99028.25;5031719;28;20030;-37
2022/08/20 09:15:20;;;;;;;8.85;6.30;;;;;;;37.72;28.22;99032.97;5031566;28;20047;-37
2022/08/20 09:17:45;;;;;;;10.18;6.75;;;;;;;37.44;28.46;99028.31;5031778;28;20473;-37
2022/08/20 09:20:11;;;;;;;10.18;6.57;;;;;;;37.00;28.93;99027.63;5031177;28;20033;-37
2022/08/20 09:22:36;;;;;;;8.88;6.10;;;;;;;37.34;28.52;99018.84;5063557;28;20044;-37
2022/08/20 09:25:02;;;;;;;11.07;6.20;;;;;;;37.06;29.14;99023.25;5070905;28;20091;-37
2022/08/20 09:27:28;;;;;;;10.27;6.55;;;;;;;36.54;30.31;99022.91;5069758;28;20032;-37
2022/08/20 09:29:54;;;;;;;8.93;6.45;;;;;;;36.96;29.37;99013.78;5071418;28;20032;-36
2022/08/20 09:32:21;;;;;;;8.93;6.07;;;;;;;37.74;27.84;99017.50;5071169;28;20029;-36
2022/08/20 09:34:57;;;;;;;7.60;6.23;;;;;;;37.28;28.45;99010.16;5071130;28;20043;-43
2022/08/20 09:37:29;;;;;;;6.70;5.97;;;;;;;37.12;29.25;99001.47;5070343;28;20048;-43
2022/08/20 09:39:55;;;;;;;10.25;6.47;;;;;;;37.49;29.15;99000.94;5071232;28;20042;-36
2022/08/20 09:42:29;;;;;;;8.00;6.40;;;;;;;37.87;28.47;99009.50;5069659;28;20568;-36
2022/08/20 09:44:56;;;;;;;11.77;6.75;;;;;;;37.02;29.27;98994.75;5071164;28;20178;-36
2022/08/20 09:47:21;;;;;;;8.75;6.63;;;;;;;36.64;29.83;98999.94;5070810;28;20031;-43
2022/08/20 09:49:47;;;;;;;9.20;7.07;;;;;;;36.63;29.98;98995.59;5070745;28;20364;-43
2022/08/20 09:52:20;;;;;;;8.57;6.88;;;;;;;36.91;29.78;98991.22;5058171;28;20096;-46
2022/08/20 09:54:46;;;;;;;7.15;6.45;;;;;;;37.00;29.46;98979.72;5050578;28;20021;-37
2022/08/20 09:57:12;;;;;;;7.55;6.78;;;;;;;37.02;29.54;98988.44;5047887;28;20384;-37
2022/08/20 09:59:38;;;;;;;10.00;6.57;;;;;;;36.93;29.70;98980.53;5050337;28;20123;-45
2022/08/20 10:02:03;;;;;;;11.25;6.85;;;;;;;37.37;29.37;98979.97;5049997;28;20543;-37
2022/08/20 10:04:29;;;;;;;8.10;6.43;;;;;;;37.19;29.87;98978.50;5050327;28;20013;-37
2022/08/20 10:06:55;;;;;;;9.82;6.45;;;;;;;36.37;30.25;98974.66;5049871;28;20641;-37
2022/08/20 10:09:21;;;;;;;7.00;6.40;;;;;;;36.14;30.65;98963.94;5049548;28;20055;-36
2022/08/20 10:11:46;;;;;;;10.85;6.50;;;;;;;36.68;30.16;98961.97;5050999;28;20032;-36
2022/08/20 10:14:12;;;;;;;10.25;6.32;;;;;;;37.27;29.39;98949.53;5047045;28;20045;-37
2022/08/20 10:16:37;;;;;;;11.15;6.60;;;;;;;37.34;29.23;98961.38;5049030;28;20060;-37
2022/08/20 10:19:04;;;;;;;8.88;6.70;;;;;;;36.73;29.70;98950.47;5049276;28;20025;-37
2022/08/20 10:21:31;;;;;;;10.05;7.05;;;;;;;36.86;30.46;98950.84;5050461;28;20025;-36
2022/08/20 10:23:57;;;;;;;12.18;8.38;;;;;;;37.85;28.64;98947.25;5051025;28;20395;-37
2022/08/20 10:26:23;;;;;;;9.63;6.78;;;;;;;38.27;27.89;98945.34;5049989;28;20046;-36
2022/08/20 10:28:48;;;;;;;8.43;6.50;;;;;;;38.45;27.59;98945.19;5049464;28;20080;-37
2022/08/20 10:31:14;;;;;;;9.30;6.20;;;;;;;37.74;28.18;98955.66;5050225;28;20025;-37
2022/08/20 10:33:41;;;;;;;6.90;6.20;;;;;;;38.03;27.73;98936.78;5049348;28;20017;-36
2022/08/20 10:36:16;;;;;;;8.95;6.45;;;;;;;37.99;27.66;98938.81;5049723;28;20017;-37
2022/08/20 10:38:43;;;;;;;10.57;6.30;;;;;;;37.89;28.03;98934.13;5048611;28;20147;-37
2022/08/20 10:41:08;;;;;;;11.60;6.80;;;;;;;38.25;27.35;98931.91;5050478;28;20049;-36
2022/08/20 10:43:34;;;;;;;8.38;6.18;;;;;;;37.96;27.81;98917.41;5050470;28;20052;-37
2022/08/20 10:46:00;;;;;;;6.63;6.00;;;;;;;38.97;26.58;98914.47;5049797;28;20024;-37
2022/08/20 10:48:26;;;;;;;7.20;5.72;;;;;;;38.55;26.65;98916.53;5050237;28;20506;-37
2022/08/20 10:50:51;;;;;;;7.07;6.05;;;;;;;38.95;25.83;98908.53;5050102;28;20028;-37
2022/08/20 10:53:17;;;;;;;6.22;5.63;;;;;;;39.41;25.33;98901.63;5050203;28;20025;-37
2022/08/20 10:55:43;;;;;;;7.32;5.25;;;;;;;39.21;24.48;98900.72;5050192;28;20392;-37
2022/08/20 10:58:09;;;;;;;9.20;5.40;;;;;;;38.72;25.59;98918.31;5050206;28;20026;-37
2022/08/20 11:00:35;;;;;;;7.65;5.50;;;;;;;38.59;25.62;98892.28;5050317;28;20013;-37
2022/08/20 11:03:01;;;;;;;7.45;5.20;;;;;;;39.24;25.18;98888.72;5049597;28;20216;-37
2022/08/20 11:05:27;;;;;;;6.00;5.40;;;;;;;39.82;23.84;98891.47;5049704;28;20062;-37
2022/08/20 11:07:53;;;;;;;9.95;4.97;;;;;;;40.29;22.95;98880.34;5048906;28;20020;-37
2022/08/20 11:10:20;;;;;;;8.60;5.07;;;;;;;40.13;23.06;98894.94;5048599;28;20249;-37
2022/08/20 11:12:45;;;;;;;5.35;4.85;;;;;;;39.94;23.29;98868.63;5049722;28;20065;-37
2022/08/20 11:15:11;;;;;;;5.63;4.80;;;;;;;39.19;23.96;98875.31;5050157;28;20075;-37
2022/08/20 11:17:39;;;;;;;9.75;5.40;;;;;;;38.87;23.78;98871.69;5050200;28;20021;-37
2022/08/20 11:20:06;;;;;;;8.18;5.20;;;;;;;38.71;24.47;98868.75;5050289;28;21505;-37
2022/08/20 11:22:33;;;;;;;6.65;4.70;;;;;;;38.72;24.06;98867.50;5048734;28;20121;-37
2022/08/20 11:24:58;;;;;;;8.50;5.05;;;;;;;39.40;23.93;98860.28;5049845;28;20472;-37
2022/08/20 11:27:37;;;;;;;8.82;4.80;;;;;;;38.53;24.37;98860.56;5050075;28;20021;-36
2022/08/20 11:30:06;;;;;;;7.97;5.03;;;;;;;38.32;24.59;98862.34;5050563;28;20031;-37
2022/08/20 11:32:31;;;;;;;;;;;;;;;38.87;23.83;98852.22;5047588;28;20033;-36
2022/08/20 11:34:56;;;;;;;6.78;5.30;;;;;;;39.07;24.11;98851.59;5049701;28;20062;-36
2022/08/20 11:37:23;;;;;;;5.63;4.82;;;;;;;39.58;23.36;98846.91;5049824;28;20049;-37
2022/08/20 11:39:49;;;;;;;7.00;4.97;;;;;;;39.61;23.25;98837.72;5049414;28;20031;-37
2022/08/20 11:42:15;;;;;;;6.20;4.97;;;;;;;38.52;24.75;98845.88;5049681;28;20101;-37
2022/08/20 11:44:40;;;;;;;6.60;4.88;;;;;;;38.57;24.28;98847.44;5049505;28;20009;-38
2022/08/20 11:47:07;;;;;;;8.43;5.20;;;;;;;38.60;24.38;98841.06;5049643;28;20021;-37
2022/08/20 11:49:34;;;;;;;9.18;4.95;;;;;;;38.69;24.44;98827.47;5048308;28;20025;-37